KLCI/LCI METAR and TAF weather

Enter ICAO airport designator
Station Type Date Time Source
KLCI METAR 2019/12/10 18:56 UTC NOAA

KLCI 101856Z AUTO 21009KT 10SM BKN033 OVC070 12/09 A2963 RMK AO2 RAE25 SLP033 P0000 T01220094


Station Type Date Time Source
KLCI Decoded METAR 2019/12/10 18:56 UTC NOAA

Laconia, Laconia Municipal Airport, NH, United States (KLCI) 43-34N 071-25W
Dec 10, 2019 - 01:56 PM EST / 2019.12.10 1856 UTC
Wind: from the SSW (210 degrees) at 10 MPH (9 KT):0
Visibility: 10 mile(s):0
Sky conditions: overcast
Precipitation last hour: A trace
Temperature: 54.0 F (12.2 C)
Dew Point: 48.9 F (9.4 C)
Relative Humidity: 82%
Pressure (altimeter): 29.63 in. Hg (1003 hPa)
ob: KLCI 101856Z AUTO 21009KT 10SM BKN033 OVC070 12/09 A2963 RMK AO2 RAE25 SLP033 P0000 T01220094
cycle: 19

Station Type Date Time Source
KLCI TAF UTC NOAA

Error!

Example: see airport list